createdAt,value
2018-07-30T00:00:23.541Z,2.90
2018-07-30T00:01:23.496Z,2.80
2018-07-30T00:02:23.451Z,2.80
2018-07-30T00:03:23.435Z,2.90
2018-07-30T00:04:23.365Z,3.00
2018-07-30T00:05:23.361Z,2.80
2018-07-30T00:06:23.278Z,3.00
2018-07-30T00:07:23.233Z,3.00
2018-07-30T00:08:23.215Z,2.80
2018-07-30T00:09:23.144Z,2.90
2018-07-30T00:10:23.102Z,2.90
2018-07-30T00:11:23.057Z,3.00
2018-07-30T00:12:23.013Z,3.10
2018-07-30T00:13:22.991Z,3.00
2018-07-30T00:14:22.930Z,3.00
2018-07-30T00:15:22.888Z,2.90
2018-07-30T00:16:22.837Z,2.80
2018-07-30T00:17:22.799Z,3.00
2018-07-30T00:18:22.818Z,2.90
2018-07-30T00:19:22.711Z,2.90
2018-07-30T00:20:22.662Z,3.20
2018-07-30T00:21:22.652Z,2.80
2018-07-30T00:22:22.573Z,2.80
2018-07-30T00:23:22.530Z,3.00
2018-07-30T00:24:22.513Z,2.90
2018-07-30T00:25:22.444Z,3.10
2018-07-30T00:26:22.402Z,2.60
2018-07-30T00:27:22.361Z,3.20
2018-07-30T00:28:22.312Z,2.90
2018-07-30T00:29:22.295Z,2.90
2018-07-30T00:30:22.223Z,3.00
2018-07-30T00:31:22.194Z,2.90
2018-07-30T00:32:22.138Z,2.70
2018-07-30T00:33:22.093Z,2.80
2018-07-30T00:34:22.071Z,3.00
2018-07-30T00:35:22.005Z,3.00
2018-07-30T00:36:21.959Z,2.80
2018-07-30T00:37:21.917Z,2.80
2018-07-30T00:38:21.874Z,2.60
2018-07-30T00:39:21.851Z,3.00
2018-07-30T00:40:21.784Z,2.90
2018-07-30T00:41:21.739Z,2.70
2018-07-30T00:42:21.706Z,2.90
2018-07-30T00:43:21.653Z,2.90
2018-07-30T00:44:21.636Z,3.00
2018-07-30T00:45:21.564Z,2.90
2018-07-30T00:46:21.519Z,2.80
2018-07-30T00:47:21.477Z,3.10
2018-07-30T00:48:21.441Z,2.90
2018-07-30T00:49:21.412Z,2.90
2018-07-30T00:50:21.342Z,2.80
2018-07-30T00:51:21.299Z,2.70
2018-07-30T00:52:21.255Z,2.80
2018-07-30T00:53:21.215Z,3.00
2018-07-30T00:54:21.193Z,2.90
2018-07-30T00:55:21.124Z,2.80
2018-07-30T00:56:21.078Z,2.90
2018-07-30T00:57:21.040Z,2.80
2018-07-30T00:58:20.992Z,2.90
2018-07-30T00:59:20.969Z,3.10
2018-07-30T01:00:20.906Z,2.90
2018-07-30T01:01:20.859Z,2.70
2018-07-30T01:02:20.813Z,3.20
2018-07-30T01:03:20.769Z,3.00
2018-07-30T01:04:20.768Z,2.70
2018-07-30T01:05:20.695Z,3.00
2018-07-30T01:06:20.649Z,2.80
2018-07-30T01:07:20.598Z,2.80
2018-07-30T01:08:20.546Z,2.90
2018-07-30T01:09:20.527Z,2.80
2018-07-30T01:10:20.462Z,2.90
2018-07-30T01:11:20.414Z,2.80
2018-07-30T01:12:20.375Z,2.80
2018-07-30T01:13:20.328Z,3.10
2018-07-30T01:14:20.327Z,3.30
2018-07-30T01:15:20.238Z,2.70
2018-07-30T01:16:20.193Z,3.00
2018-07-30T01:17:20.155Z,3.00
2018-07-30T01:18:20.106Z,2.80
2018-07-30T01:19:20.082Z,2.80
2018-07-30T01:20:20.016Z,3.00
2018-07-30T01:21:19.973Z,2.80
2018-07-30T01:22:19.929Z,2.80
2018-07-30T01:23:19.886Z,2.90
2018-07-30T01:24:19.868Z,3.20
2018-07-30T01:25:19.797Z,3.10
2018-07-30T01:26:19.751Z,2.90
2018-07-30T01:27:19.710Z,3.00
2018-07-30T01:28:19.670Z,2.80
2018-07-30T01:29:19.650Z,3.00
2018-07-30T01:30:19.581Z,3.10
2018-07-30T01:31:19.529Z,3.10
2018-07-30T01:32:19.484Z,3.10
2018-07-30T01:33:19.441Z,3.30
2018-07-30T01:34:19.419Z,3.20
2018-07-30T01:35:19.359Z,3.30
2018-07-30T01:36:19.309Z,3.00
2018-07-30T01:37:19.261Z,3.20
2018-07-30T01:38:19.222Z,2.90
2018-07-30T01:39:19.195Z,3.20
2018-07-30T01:40:19.145Z,3.10
2018-07-30T01:41:19.084Z,3.20
2018-07-30T01:42:19.046Z,2.80
2018-07-30T01:43:18.996Z,3.30
2018-07-30T01:44:18.979Z,3.00
2018-07-30T01:45:18.909Z,3.00
2018-07-30T01:46:18.884Z,3.20
2018-07-30T01:47:18.820Z,2.70
2018-07-30T01:48:18.775Z,3.20
2018-07-30T01:49:18.753Z,2.80
2018-07-30T01:50:18.689Z,3.10
2018-07-30T01:51:18.649Z,2.70
2018-07-30T01:52:18.601Z,3.10
2018-07-30T01:53:18.553Z,2.80
2018-07-30T01:54:18.538Z,2.80
2018-07-30T01:55:18.467Z,3.10
2018-07-30T01:56:18.421Z,2.90
2018-07-30T01:57:18.378Z,3.20
2018-07-30T01:58:18.335Z,2.90
2018-07-30T01:59:18.285Z,3.00
2018-07-30T02:00:18.267Z,3.00
2018-07-30T02:01:18.201Z,3.00
2018-07-30T02:02:18.160Z,3.10
2018-07-30T02:03:18.110Z,2.90
2018-07-30T02:04:18.070Z,2.80
2018-07-30T02:05:18.050Z,2.80
2018-07-30T02:06:17.984Z,3.10
2018-07-30T02:07:17.932Z,3.10
2018-07-30T02:08:17.885Z,3.20
2018-07-30T02:09:17.842Z,2.90
2018-07-30T02:10:17.820Z,2.90
2018-07-30T02:11:17.755Z,3.00
2018-07-30T02:12:17.711Z,2.90
2018-07-30T02:13:17.664Z,3.00
2018-07-30T02:14:17.622Z,2.80
2018-07-30T02:15:17.607Z,2.90
2018-07-30T02:16:17.531Z,2.80
2018-07-30T02:17:17.487Z,2.80
2018-07-30T02:18:17.442Z,3.10
2018-07-30T02:19:17.398Z,3.00
2018-07-30T02:20:17.375Z,3.10
2018-07-30T02:21:17.321Z,3.10
2018-07-30T02:22:17.266Z,2.90
2018-07-30T02:23:17.222Z,2.70
2018-07-30T02:24:17.179Z,3.00
2018-07-30T02:25:17.154Z,3.20
2018-07-30T02:26:17.089Z,3.20
2018-07-30T02:27:17.053Z,3.00
2018-07-30T02:28:16.997Z,3.00
2018-07-30T02:29:16.953Z,3.10
2018-07-30T02:30:16.932Z,3.10
2018-07-30T02:31:16.870Z,3.00
2018-07-30T02:32:16.845Z,2.90
2018-07-30T02:33:16.788Z,3.30
2018-07-30T02:34:16.732Z,2.90
2018-07-30T02:35:16.711Z,3.20
2018-07-30T02:36:16.643Z,2.90
2018-07-30T02:37:16.594Z,3.20
2018-07-30T02:38:16.552Z,3.10
2018-07-30T02:39:16.509Z,3.10
2018-07-30T02:40:16.489Z,3.10
2018-07-30T02:41:16.419Z,2.90
2018-07-30T02:42:16.376Z,3.10
2018-07-30T02:43:16.330Z,3.40
2018-07-30T02:44:16.286Z,2.90
2018-07-30T02:45:16.267Z,3.30
2018-07-30T02:46:16.198Z,2.80
2018-07-30T02:47:16.155Z,2.90
2018-07-30T02:48:16.111Z,3.30
2018-07-30T02:49:16.061Z,2.80
2018-07-30T02:50:16.044Z,2.90
2018-07-30T02:51:15.977Z,3.00
2018-07-30T02:52:15.927Z,2.90
2018-07-30T02:53:15.882Z,3.10
2018-07-30T02:54:15.847Z,3.00
2018-07-30T02:55:15.821Z,2.90
2018-07-30T02:56:15.755Z,3.10
2018-07-30T02:57:15.722Z,3.10
2018-07-30T02:58:15.662Z,3.10
2018-07-30T02:59:15.619Z,2.80
2018-07-30T03:00:15.593Z,3.20
2018-07-30T03:01:15.534Z,3.20
2018-07-30T03:02:15.482Z,2.90
2018-07-30T03:03:15.436Z,2.80
2018-07-30T03:04:15.391Z,3.10
2018-07-30T03:05:15.373Z,3.00
2018-07-30T03:06:15.303Z,3.00
2018-07-30T03:07:15.260Z,2.90
2018-07-30T03:08:15.236Z,2.90
2018-07-30T03:09:15.181Z,3.00
2018-07-30T03:10:15.147Z,3.00
2018-07-30T03:11:15.080Z,2.90
2018-07-30T03:12:15.038Z,2.80
2018-07-30T03:13:15.001Z,3.00
2018-07-30T03:14:14.940Z,2.80
2018-07-30T03:15:14.921Z,3.10
2018-07-30T03:16:14.869Z,3.10
2018-07-30T03:17:14.806Z,3.10
2018-07-30T03:18:14.763Z,3.10
2018-07-30T03:19:14.717Z,3.00
2018-07-30T03:20:14.704Z,2.80
2018-07-30T03:21:14.640Z,3.10
2018-07-30T03:22:14.582Z,2.70
2018-07-30T03:23:14.544Z,3.00
2018-07-30T03:24:14.498Z,3.20
2018-07-30T03:25:14.478Z,2.80
2018-07-30T03:26:14.412Z,2.90
2018-07-30T03:27:14.370Z,2.80
2018-07-30T03:28:14.315Z,3.20
2018-07-30T03:29:14.270Z,2.90
2018-07-30T03:30:14.227Z,3.10
2018-07-30T03:31:14.205Z,3.20
2018-07-30T03:32:14.141Z,3.20
2018-07-30T03:33:14.089Z,3.10
2018-07-30T03:34:14.056Z,3.00
2018-07-30T03:35:13.999Z,3.00
2018-07-30T03:36:13.981Z,2.90
2018-07-30T03:37:13.910Z,3.00
2018-07-30T03:38:13.872Z,2.90
2018-07-30T03:39:13.823Z,3.30
2018-07-30T03:40:13.782Z,3.10
2018-07-30T03:41:13.757Z,3.10
2018-07-30T03:42:13.710Z,3.10
2018-07-30T03:43:13.644Z,3.00
2018-07-30T03:44:13.592Z,2.90
2018-07-30T03:45:13.554Z,3.10
2018-07-30T03:46:13.523Z,3.20
2018-07-30T03:47:13.461Z,3.20
2018-07-30T03:48:13.417Z,3.00
2018-07-30T03:49:13.372Z,3.10
2018-07-30T03:50:13.327Z,3.30
2018-07-30T03:51:13.303Z,3.30
2018-07-30T03:52:13.232Z,3.10
2018-07-30T03:53:13.193Z,3.40
2018-07-30T03:54:13.152Z,3.30
2018-07-30T03:55:13.106Z,3.30
2018-07-30T03:56:13.085Z,3.30
2018-07-30T03:57:13.024Z,3.30
2018-07-30T03:58:12.966Z,3.30
2018-07-30T03:59:12.924Z,3.20
2018-07-30T04:00:13.001Z,3.10
2018-07-30T04:01:12.847Z,3.30
2018-07-30T04:02:12.794Z,3.20
2018-07-30T04:03:12.734Z,3.50
2018-07-30T04:04:12.690Z,3.10
2018-07-30T04:05:12.660Z,3.20
2018-07-30T04:06:12.733Z,3.50
2018-07-30T04:07:12.565Z,3.40
2018-07-30T04:08:12.512Z,3.20
2018-07-30T04:09:12.465Z,3.30
2018-07-30T04:10:12.429Z,3.30
2018-07-30T04:11:12.396Z,3.20
2018-07-30T04:12:12.328Z,3.30
2018-07-30T04:13:12.284Z,3.60
2018-07-30T04:14:12.239Z,3.40
2018-07-30T04:15:12.196Z,3.40
2018-07-30T04:16:12.168Z,3.40
2018-07-30T04:17:12.103Z,3.20
2018-07-30T04:18:12.057Z,3.10
2018-07-30T04:19:12.011Z,3.50
2018-07-30T04:20:11.978Z,3.40
2018-07-30T04:21:11.946Z,3.50
2018-07-30T04:22:11.909Z,3.50
2018-07-30T04:23:11.830Z,3.50
2018-07-30T04:24:11.785Z,3.10
2018-07-30T04:25:11.741Z,3.30
2018-07-30T04:26:11.719Z,3.50
2018-07-30T04:27:11.671Z,3.30
2018-07-30T04:28:11.605Z,3.20
2018-07-30T04:29:11.567Z,3.40
2018-07-30T04:30:11.534Z,3.40
2018-07-30T04:31:11.493Z,4.70
2018-07-30T04:32:11.421Z,3.50
2018-07-30T04:33:11.377Z,3.70
2018-07-30T04:34:11.336Z,4.10
2018-07-30T04:35:11.290Z,4.20
2018-07-30T04:36:11.265Z,3.80
2018-07-30T04:37:11.200Z,3.50
2018-07-30T04:38:11.151Z,3.60
2018-07-30T04:39:11.112Z,3.90
2018-07-30T04:40:11.067Z,3.40
2018-07-30T04:41:11.061Z,3.50
2018-07-30T04:42:10.980Z,3.20
2018-07-30T04:43:10.928Z,3.20
2018-07-30T04:44:10.889Z,3.40
2018-07-30T04:45:10.845Z,3.40
2018-07-30T04:46:10.821Z,3.30
2018-07-30T04:47:10.749Z,3.20
2018-07-30T04:48:10.708Z,3.10
2018-07-30T04:49:10.690Z,3.70
2018-07-30T04:50:10.633Z,3.50
2018-07-30T04:51:10.598Z,3.60
2018-07-30T04:52:10.556Z,3.50
2018-07-30T04:53:10.482Z,3.40
2018-07-30T04:54:10.435Z,3.50
2018-07-30T04:55:10.393Z,3.70
2018-07-30T04:56:10.393Z,3.30
2018-07-30T04:57:10.300Z,3.50
2018-07-30T04:58:10.254Z,3.40
2018-07-30T04:59:10.214Z,3.30
2018-07-30T05:00:10.171Z,3.40
2018-07-30T05:01:10.127Z,3.30
2018-07-30T05:02:10.135Z,3.30
2018-07-30T05:03:10.038Z,3.50
2018-07-30T05:04:09.988Z,3.50
2018-07-30T05:05:09.953Z,3.40
2018-07-30T05:06:09.906Z,3.40
2018-07-30T05:07:09.905Z,3.30
2018-07-30T05:08:09.813Z,3.30
2018-07-30T05:09:09.775Z,3.30
2018-07-30T05:10:09.722Z,3.20
2018-07-30T05:11:09.720Z,3.10
2018-07-30T05:12:09.693Z,3.20
2018-07-30T05:13:09.604Z,3.00
2018-07-30T05:14:09.546Z,3.30
2018-07-30T05:15:09.511Z,3.10
2018-07-30T05:16:09.457Z,3.10
2018-07-30T05:17:09.436Z,3.30
2018-07-30T05:18:09.370Z,2.90
2018-07-30T05:19:09.329Z,3.50
2018-07-30T05:20:09.282Z,3.80
2018-07-30T05:21:09.241Z,3.30
2018-07-30T05:22:09.216Z,4.00
2018-07-30T05:23:09.160Z,3.70
2018-07-30T05:24:09.123Z,3.50
2018-07-30T05:25:09.065Z,3.40
2018-07-30T05:26:09.022Z,3.30
2018-07-30T05:27:09.005Z,3.40
2018-07-30T05:28:08.943Z,3.20
2018-07-30T05:29:08.892Z,3.30
2018-07-30T05:30:08.865Z,3.30
2018-07-30T05:31:08.811Z,3.20
2018-07-30T05:32:08.785Z,3.40
2018-07-30T05:33:08.721Z,3.10
2018-07-30T05:34:08.677Z,2.90
2018-07-30T05:35:08.637Z,3.00
2018-07-30T05:36:08.600Z,2.80
2018-07-30T05:37:08.606Z,3.10
2018-07-30T05:38:08.510Z,3.10
2018-07-30T05:39:08.468Z,3.10
2018-07-30T05:40:08.431Z,3.00
2018-07-30T05:41:08.378Z,2.90
2018-07-30T05:42:08.376Z,3.00
2018-07-30T05:43:08.298Z,2.90
2018-07-30T05:44:08.258Z,3.20
2018-07-30T05:45:08.213Z,2.90
2018-07-30T05:46:08.167Z,3.30
2018-07-30T05:47:08.154Z,2.80
2018-07-30T05:48:08.096Z,3.10
2018-07-30T05:49:08.039Z,2.80
2018-07-30T05:50:08.017Z,2.90
2018-07-30T05:51:07.953Z,2.90
2018-07-30T05:52:07.939Z,3.10
2018-07-30T05:53:07.865Z,2.70
2018-07-30T05:54:07.830Z,2.90
2018-07-30T05:55:07.787Z,2.90
2018-07-30T05:56:07.736Z,3.20
2018-07-30T05:57:07.723Z,3.00
2018-07-30T05:58:07.655Z,2.90
2018-07-30T05:59:07.610Z,2.80
2018-07-30T06:00:07.572Z,3.20
2018-07-30T06:01:07.525Z,2.70
2018-07-30T06:02:07.505Z,2.90
2018-07-30T06:03:07.452Z,2.90
2018-07-30T06:04:07.400Z,2.90
2018-07-30T06:05:07.351Z,2.90
2018-07-30T06:06:07.310Z,3.10
2018-07-30T06:07:07.310Z,3.20
2018-07-30T06:08:07.225Z,2.80
2018-07-30T06:09:07.181Z,3.10
2018-07-30T06:10:07.136Z,3.00
2018-07-30T06:11:07.095Z,3.00
2018-07-30T06:12:07.074Z,3.00
2018-07-30T06:13:07.005Z,2.70
2018-07-30T06:14:06.965Z,3.10
2018-07-30T06:15:06.922Z,3.00
2018-07-30T06:16:06.879Z,3.10
2018-07-30T06:17:06.856Z,2.80
2018-07-30T06:18:06.790Z,2.80
2018-07-30T06:19:06.749Z,2.70
2018-07-30T06:20:06.706Z,2.80
2018-07-30T06:21:06.662Z,2.60
2018-07-30T06:22:06.643Z,2.80
2018-07-30T06:23:06.575Z,2.90
2018-07-30T06:24:06.546Z,2.60
2018-07-30T06:25:06.492Z,2.90
2018-07-30T06:26:06.451Z,3.10
2018-07-30T06:27:06.439Z,2.70
2018-07-30T06:28:06.363Z,2.60
2018-07-30T06:29:06.320Z,3.20
2018-07-30T06:30:06.278Z,2.50
2018-07-30T06:31:06.238Z,3.00
2018-07-30T06:32:06.192Z,2.90
2018-07-30T06:33:06.174Z,2.80
2018-07-30T06:34:06.108Z,2.80
2018-07-30T06:35:06.070Z,2.90
2018-07-30T06:36:06.026Z,2.60
2018-07-30T06:37:05.980Z,2.80
2018-07-30T06:38:05.964Z,2.80
2018-07-30T06:39:05.893Z,2.80
2018-07-30T06:40:05.854Z,2.80
2018-07-30T06:41:05.816Z,2.80
2018-07-30T06:42:05.766Z,2.70
2018-07-30T06:43:05.753Z,2.70
2018-07-30T06:44:05.689Z,2.70
2018-07-30T06:45:05.642Z,2.70
2018-07-30T06:46:05.602Z,2.50
2018-07-30T06:47:05.570Z,2.80
2018-07-30T06:48:05.548Z,2.70
2018-07-30T06:49:05.485Z,2.70
2018-07-30T06:50:05.435Z,2.60
2018-07-30T06:51:05.397Z,2.60
2018-07-30T06:52:05.348Z,2.90
2018-07-30T06:53:05.341Z,2.90
2018-07-30T06:54:05.261Z,2.60
2018-07-30T06:55:05.219Z,2.60
2018-07-30T06:56:05.181Z,2.70
2018-07-30T06:57:05.136Z,2.50
2018-07-30T06:58:05.117Z,2.60
2018-07-30T06:59:05.060Z,2.60
2018-07-30T07:00:05.018Z,2.60
2018-07-30T07:01:04.971Z,3.00
2018-07-30T07:02:04.960Z,2.50
2018-07-30T07:03:04.910Z,2.70
2018-07-30T07:04:04.844Z,2.60
2018-07-30T07:05:04.805Z,2.70
2018-07-30T07:06:04.768Z,2.50
2018-07-30T07:07:04.724Z,2.70
2018-07-30T07:08:04.703Z,2.70
2018-07-30T07:09:04.657Z,2.60
2018-07-30T07:10:04.601Z,3.00
2018-07-30T07:11:04.558Z,2.50
2018-07-30T07:12:04.521Z,2.60
2018-07-30T07:13:04.509Z,2.30
2018-07-30T07:14:04.433Z,2.60
2018-07-30T07:15:04.398Z,3.10
2018-07-30T07:16:04.352Z,2.40
2018-07-30T07:17:04.315Z,2.30
2018-07-30T07:18:04.299Z,2.30
2018-07-30T07:19:04.233Z,2.30
2018-07-30T07:20:04.192Z,2.20
2018-07-30T07:21:04.148Z,2.60
2018-07-30T07:22:04.130Z,2.60
2018-07-30T07:23:04.097Z,2.60
2018-07-30T07:24:04.043Z,2.40
2018-07-30T07:25:04.002Z,2.40
2018-07-30T07:26:03.947Z,2.30
2018-07-30T07:27:04.016Z,2.10
2018-07-30T07:28:03.951Z,2.10
2018-07-30T07:29:03.825Z,2.50
2018-07-30T07:30:03.789Z,2.00
2018-07-30T07:31:03.740Z,2.20
2018-07-30T07:32:03.705Z,2.40
2018-07-30T07:33:03.716Z,2.10
2018-07-30T07:34:03.636Z,2.30
2018-07-30T07:35:03.650Z,2.40
2018-07-30T07:36:03.547Z,2.30
2018-07-30T07:37:03.499Z,2.40
2018-07-30T07:38:03.502Z,2.40
2018-07-30T07:39:03.426Z,2.50
2018-07-30T07:40:03.378Z,2.70
2018-07-30T07:41:03.337Z,2.20
2018-07-30T07:42:03.312Z,2.50
2018-07-30T07:43:03.285Z,2.40
2018-07-30T07:44:03.226Z,2.60
2018-07-30T07:45:03.230Z,2.60
2018-07-30T07:46:03.151Z,2.30
2018-07-30T07:47:03.101Z,2.60
2018-07-30T07:48:03.098Z,2.20
2018-07-30T07:49:03.053Z,2.40
2018-07-30T07:50:02.986Z,2.30
2018-07-30T07:51:03.101Z,2.50
2018-07-30T07:52:02.896Z,2.40
2018-07-30T07:53:02.888Z,2.50
2018-07-30T07:54:02.836Z,2.60
2018-07-30T07:55:02.781Z,2.70
2018-07-30T07:56:02.762Z,2.60
2018-07-30T07:57:02.700Z,2.70
2018-07-30T07:58:02.679Z,2.60
2018-07-30T07:59:02.612Z,2.60
2018-07-30T08:00:02.571Z,2.20
2018-07-30T08:01:02.542Z,2.50
2018-07-30T08:02:02.495Z,2.50
2018-07-30T08:03:02.508Z,2.40
2018-07-30T08:04:02.415Z,2.60
2018-07-30T08:05:02.379Z,2.40
2018-07-30T08:06:02.332Z,2.40
2018-07-30T08:07:02.292Z,2.40
2018-07-30T08:08:02.260Z,2.30
2018-07-30T08:09:02.253Z,2.60
2018-07-30T08:10:02.180Z,2.50
2018-07-30T08:11:02.369Z,2.60
2018-07-30T08:12:02.097Z,2.50
2018-07-30T08:13:02.067Z,2.50
2018-07-30T08:14:02.037Z,2.40
2018-07-30T08:15:01.981Z,2.40
2018-07-30T08:16:01.938Z,2.40
2018-07-30T08:17:01.900Z,2.40
2018-07-30T08:18:01.853Z,2.40
2018-07-30T08:19:01.852Z,2.40
2018-07-30T08:20:01.798Z,2.50
2018-07-30T08:21:01.737Z,2.40
2018-07-30T08:22:01.698Z,2.60
2018-07-30T08:23:01.670Z,2.40
2018-07-30T08:24:01.642Z,2.20
2018-07-30T08:25:01.577Z,2.60
2018-07-30T08:26:01.539Z,2.40
2018-07-30T08:27:01.496Z,2.30
2018-07-30T08:28:01.480Z,2.50
2018-07-30T08:29:01.517Z,2.40
2018-07-30T08:30:01.380Z,2.40
2018-07-30T08:31:01.339Z,2.30
2018-07-30T08:32:01.299Z,2.40
2018-07-30T08:33:01.284Z,2.80
2018-07-30T08:34:01.266Z,2.60
2018-07-30T08:35:01.185Z,3.00
2018-07-30T08:36:01.142Z,2.60
2018-07-30T08:37:01.111Z,2.60
2018-07-30T08:38:01.068Z,2.50
2018-07-30T08:39:01.047Z,2.40
2018-07-30T08:40:00.989Z,2.40
2018-07-30T08:41:00.943Z,2.70
2018-07-30T08:42:00.907Z,2.40
2018-07-30T08:43:00.872Z,2.50
2018-07-30T08:44:00.845Z,2.40
2018-07-30T08:45:00.783Z,2.40
2018-07-30T08:46:00.745Z,2.60
2018-07-30T08:47:00.716Z,2.40
2018-07-30T08:48:00.679Z,2.60
2018-07-30T08:49:00.659Z,2.30
2018-07-30T08:50:00.588Z,2.60
2018-07-30T08:51:00.547Z,2.90
2018-07-30T08:52:00.513Z,2.60
2018-07-30T08:53:00.470Z,2.60
2018-07-30T08:54:00.448Z,2.60
2018-07-30T08:55:00.390Z,2.60
2018-07-30T08:56:00.352Z,2.40
2018-07-30T08:57:00.312Z,2.70
2018-07-30T08:58:00.274Z,2.70
2018-07-30T08:59:00.268Z,2.60
2018-07-30T09:00:00.196Z,2.70
2018-07-30T09:01:00.155Z,2.40
2018-07-30T09:02:00.114Z,2.60
2018-07-30T09:03:00.085Z,2.30
2018-07-30T09:04:00.076Z,2.30
2018-07-30T09:05:00.005Z,2.50
2018-07-30T09:05:59.977Z,2.20
2018-07-30T09:06:59.939Z,3.00
2018-07-30T09:07:59.902Z,2.40
2018-07-30T09:08:59.879Z,2.30
2018-07-30T09:09:59.801Z,2.30
2018-07-30T09:10:59.773Z,2.20
2018-07-30T09:11:59.728Z,2.50
2018-07-30T09:12:59.694Z,2.60
2018-07-30T09:13:59.676Z,2.40
2018-07-30T09:14:59.622Z,2.60
2018-07-30T09:15:59.590Z,2.60
2018-07-30T09:16:59.554Z,2.40
2018-07-30T09:17:59.502Z,2.20
2018-07-30T09:18:59.483Z,2.30
2018-07-30T09:19:59.424Z,2.30
2018-07-30T09:20:59.385Z,2.20
2018-07-30T09:21:59.348Z,2.20
2018-07-30T09:22:59.311Z,2.10
2018-07-30T09:23:59.296Z,2.30
2018-07-30T09:24:59.231Z,2.30
2018-07-30T09:25:59.196Z,2.10
2018-07-30T09:26:59.160Z,2.00
2018-07-30T09:27:59.117Z,2.20
2018-07-30T09:28:59.081Z,2.20
2018-07-30T09:29:59.059Z,2.10
2018-07-30T09:30:58.999Z,2.10
2018-07-30T09:31:58.967Z,2.00
2018-07-30T09:32:59.008Z,2.20
2018-07-30T09:33:58.887Z,1.90
2018-07-30T09:34:58.873Z,2.20
2018-07-30T09:35:58.810Z,2.00
2018-07-30T09:36:58.780Z,2.30
2018-07-30T09:37:58.731Z,2.20
2018-07-30T09:38:58.697Z,2.20
2018-07-30T09:39:58.680Z,2.40
2018-07-30T09:40:58.618Z,2.00
2018-07-30T09:41:58.578Z,2.20
2018-07-30T09:42:58.567Z,2.00
2018-07-30T09:43:58.504Z,2.30
2018-07-30T09:44:58.551Z,2.00
2018-07-30T09:45:58.427Z,2.00
2018-07-30T09:46:58.384Z,2.20
2018-07-30T09:47:58.349Z,2.00
2018-07-30T09:48:58.323Z,2.10
2018-07-30T09:49:58.301Z,2.10
2018-07-30T09:50:58.244Z,2.00
2018-07-30T09:51:58.197Z,2.10
2018-07-30T09:52:58.159Z,2.10
2018-07-30T09:53:58.130Z,2.00
2018-07-30T09:54:58.104Z,2.00
2018-07-30T09:55:58.052Z,2.10
2018-07-30T09:56:58.054Z,2.10
2018-07-30T09:57:57.966Z,2.10
2018-07-30T09:58:57.938Z,2.20
2018-07-30T09:59:57.910Z,2.20
2018-07-30T10:00:57.848Z,2.20
2018-07-30T10:01:57.821Z,2.00
2018-07-30T10:02:57.775Z,2.10
2018-07-30T10:03:57.736Z,2.10
2018-07-30T10:04:57.731Z,2.30
2018-07-30T10:05:57.659Z,2.00
2018-07-30T10:06:57.620Z,2.20
2018-07-30T10:07:57.582Z,2.30
2018-07-30T10:08:57.543Z,2.00
2018-07-30T10:09:57.528Z,2.20
2018-07-30T10:10:57.490Z,2.30
2018-07-30T10:11:57.435Z,2.10
2018-07-30T10:12:57.388Z,2.20
2018-07-30T10:13:57.358Z,2.00
2018-07-30T10:14:57.331Z,2.20
2018-07-30T10:15:57.272Z,2.00
2018-07-30T10:16:57.236Z,1.90
2018-07-30T10:17:57.217Z,2.20
2018-07-30T10:18:57.157Z,2.10
2018-07-30T10:19:57.144Z,2.10
2018-07-30T10:20:57.653Z,2.20
2018-07-30T10:21:57.041Z,2.20
2018-07-30T10:22:57.003Z,2.00
2018-07-30T10:23:56.959Z,1.80
2018-07-30T10:24:56.946Z,2.30
2018-07-30T10:25:56.895Z,2.10
2018-07-30T10:26:56.849Z,2.10
2018-07-30T10:27:56.809Z,2.20
2018-07-30T10:28:56.776Z,2.30
2018-07-30T10:29:56.775Z,2.00
2018-07-30T10:30:56.689Z,2.10
2018-07-30T10:31:56.652Z,2.10
2018-07-30T10:32:56.610Z,2.10
2018-07-30T10:33:56.574Z,1.90
2018-07-30T10:34:56.556Z,2.00
2018-07-30T10:35:56.497Z,2.00
2018-07-30T10:36:56.457Z,2.10
2018-07-30T10:37:56.466Z,2.20
2018-07-30T10:38:56.382Z,2.30
2018-07-30T10:39:56.399Z,2.20
2018-07-30T10:40:56.318Z,1.90
2018-07-30T10:41:56.272Z,2.20
2018-07-30T10:42:56.228Z,2.30
2018-07-30T10:43:56.188Z,2.30
2018-07-30T10:44:56.172Z,2.40
2018-07-30T10:45:56.111Z,2.10
2018-07-30T10:46:56.076Z,2.30
2018-07-30T10:47:56.040Z,2.10
2018-07-30T10:48:55.998Z,2.20
2018-07-30T10:49:55.990Z,2.10
2018-07-30T10:50:55.928Z,1.90
2018-07-30T10:51:55.890Z,2.10
2018-07-30T10:52:55.847Z,2.10
2018-07-30T10:53:55.889Z,2.20
2018-07-30T10:54:55.771Z,2.10
2018-07-30T10:55:55.757Z,2.20
2018-07-30T10:56:55.688Z,2.00
2018-07-30T10:57:55.659Z,1.90
2018-07-30T10:58:55.621Z,2.20
2018-07-30T10:59:55.582Z,2.40
2018-07-30T11:00:55.616Z,2.10
2018-07-30T11:01:55.506Z,1.90
2018-07-30T11:02:55.467Z,2.10
2018-07-30T11:03:55.425Z,2.10
2018-07-30T11:04:55.390Z,2.40
2018-07-30T11:05:55.372Z,2.20
2018-07-30T11:06:55.312Z,2.30
2018-07-30T11:07:55.336Z,2.20
2018-07-30T11:08:55.237Z,2.20
2018-07-30T11:09:55.198Z,2.20
2018-07-30T11:10:55.187Z,2.40
2018-07-30T11:11:55.123Z,2.60
2018-07-30T11:12:55.085Z,2.10
2018-07-30T11:13:55.051Z,2.20
2018-07-30T11:14:55.054Z,2.20
2018-07-30T11:15:54.994Z,2.00
2018-07-30T11:16:54.934Z,2.40
2018-07-30T11:17:54.899Z,2.20
2018-07-30T11:18:54.867Z,2.20
2018-07-30T11:19:54.823Z,2.40
2018-07-30T11:20:54.805Z,2.20
2018-07-30T11:21:54.751Z,2.20
2018-07-30T11:22:54.708Z,2.40
2018-07-30T11:23:54.673Z,2.40
2018-07-30T11:24:54.644Z,2.30
2018-07-30T11:25:54.622Z,2.30
2018-07-30T11:26:54.559Z,2.20
2018-07-30T11:27:54.552Z,2.30
2018-07-30T11:28:54.479Z,2.30
2018-07-30T11:29:54.441Z,2.20
2018-07-30T11:30:54.433Z,2.20
2018-07-30T11:31:54.369Z,2.50
2018-07-30T11:32:54.329Z,2.40
2018-07-30T11:33:54.300Z,2.30
2018-07-30T11:34:54.252Z,2.40
2018-07-30T11:35:54.246Z,2.40
2018-07-30T11:36:54.181Z,2.30
2018-07-30T11:37:54.145Z,2.30
2018-07-30T11:38:54.108Z,2.30
2018-07-30T11:39:54.066Z,2.30
2018-07-30T11:40:54.060Z,2.20
2018-07-30T11:41:53.989Z,2.30
2018-07-30T11:42:53.974Z,2.30
2018-07-30T11:43:53.915Z,2.30
2018-07-30T11:44:53.877Z,2.40
2018-07-30T11:45:53.862Z,2.40
2018-07-30T11:46:53.803Z,2.40
2018-07-30T11:47:53.766Z,2.30
2018-07-30T11:48:53.730Z,2.40
2018-07-30T11:49:53.693Z,2.20
2018-07-30T11:50:53.681Z,2.20
2018-07-30T11:51:53.616Z,2.40
2018-07-30T11:52:53.589Z,2.30
2018-07-30T11:53:53.560Z,2.50
2018-07-30T11:54:53.502Z,2.50
2018-07-30T11:55:53.489Z,2.10
2018-07-30T11:56:53.426Z,2.50
2018-07-30T11:57:53.389Z,2.40
2018-07-30T11:58:53.351Z,2.20
2018-07-30T11:59:53.317Z,2.50
2018-07-30T12:00:53.313Z,2.20
2018-07-30T12:01:53.285Z,2.30
2018-07-30T12:02:53.224Z,2.40
2018-07-30T12:03:53.166Z,2.30
2018-07-30T12:04:53.128Z,2.30
2018-07-30T12:05:53.110Z,2.30
2018-07-30T12:06:53.051Z,2.40
2018-07-30T12:07:53.013Z,2.40
2018-07-30T12:08:53.021Z,2.20
2018-07-30T12:09:52.949Z,2.40
2018-07-30T12:10:52.922Z,2.30
2018-07-30T12:11:52.887Z,2.50
2018-07-30T12:12:52.827Z,2.10
2018-07-30T12:13:52.789Z,2.50
2018-07-30T12:14:52.753Z,2.40
2018-07-30T12:15:52.741Z,2.30
2018-07-30T12:16:52.673Z,2.40
2018-07-30T12:17:52.646Z,2.40
2018-07-30T12:18:52.598Z,2.40
2018-07-30T12:19:52.557Z,2.20
2018-07-30T12:20:52.520Z,2.20
2018-07-30T12:21:52.546Z,2.20
2018-07-30T12:22:52.459Z,2.60
2018-07-30T12:23:52.408Z,2.40
2018-07-30T12:24:52.368Z,2.40
2018-07-30T12:25:52.336Z,2.30
2018-07-30T12:26:52.320Z,2.50
2018-07-30T12:27:52.258Z,2.40
2018-07-30T12:28:52.220Z,2.30
2018-07-30T12:29:52.179Z,2.60
2018-07-30T12:30:52.142Z,2.30
2018-07-30T12:31:52.128Z,2.50
2018-07-30T12:32:52.067Z,2.30
2018-07-30T12:33:52.025Z,2.20
2018-07-30T12:34:51.990Z,2.40
2018-07-30T12:35:51.956Z,2.50
2018-07-30T12:36:51.937Z,2.40
2018-07-30T12:37:51.878Z,2.20
2018-07-30T12:38:51.842Z,2.30
2018-07-30T12:39:51.805Z,10.70
2018-07-30T12:40:51.763Z,3.40
2018-07-30T12:41:51.750Z,2.30
2018-07-30T12:42:51.688Z,2.30
2018-07-30T12:43:51.679Z,2.50
2018-07-30T12:44:51.613Z,2.40
2018-07-30T12:45:51.572Z,2.30
2018-07-30T12:46:51.575Z,2.20
2018-07-30T12:47:51.500Z,2.60
2018-07-30T12:48:51.461Z,2.50
2018-07-30T12:49:51.421Z,2.30
2018-07-30T12:50:51.390Z,2.30
2018-07-30T12:51:51.372Z,2.30
2018-07-30T12:52:51.312Z,2.20
2018-07-30T12:53:51.272Z,2.00
2018-07-30T12:54:51.286Z,2.40
2018-07-30T12:55:51.194Z,2.20
2018-07-30T12:56:51.222Z,2.20
2018-07-30T12:57:51.121Z,2.30
2018-07-30T12:58:51.082Z,2.40
2018-07-30T12:59:51.045Z,2.20
2018-07-30T13:00:51.008Z,2.10
2018-07-30T13:01:50.991Z,2.20
2018-07-30T13:02:50.997Z,2.30
2018-07-30T13:03:50.895Z,2.20
2018-07-30T13:04:50.852Z,2.10
2018-07-30T13:05:50.817Z,2.10
2018-07-30T13:06:50.819Z,2.40
2018-07-30T13:07:50.743Z,2.20
2018-07-30T13:08:50.705Z,2.10
2018-07-30T13:09:50.670Z,2.60
2018-07-30T13:10:50.630Z,2.20
2018-07-30T13:11:50.617Z,2.30
2018-07-30T13:12:50.570Z,2.20
2018-07-30T13:13:50.568Z,2.30
2018-07-30T13:14:50.489Z,2.60
2018-07-30T13:15:50.448Z,2.40
2018-07-30T13:16:50.425Z,2.30
2018-07-30T13:17:50.362Z,2.30